Terminal Aerodrome Forecast
Issued by NWS

Home | Current Version | Previous Version | Text Only | Print | Product List | Glossary On
Versions: 1 2 3 4 5 6 7 8 9 10 11 12
000
FTUS45 KABQ 020500
TAFROW
TAF
KROW 020539Z 0206/0306 26006KT P6SM SKC
     FM020900 36006KT P6SM SKC
     FM021300 04006KT P6SM FEW050
     FM021900 15007KT P6SM FEW090=

USA.gov is the U.S. government's official web portal to all federal, state and local government web resources and services.